PAJN/JNU METAR and TAF weather

Enter ICAO airport designator
Station Type Date Time Source
PAJN METAR 2022/08/12 14:53 UTC NOAA

PAJN 121453Z 00000KT 10SM FEW032 OVC038 14/11 A3003 RMK AO2 SLP168 T01440111 58006 $


Station Type Date Time Source
PAJN Decoded METAR 2022/08/12 14:53 UTC NOAA

JUNEAU INTERNATIONAL AIRPORT, AK, United States (PAJN) 58-21N 134-34W 8M
Aug 12, 2022 - 10:53 AM EDT / 2022.08.12 1453 UTC
Wind: Calm:0
Visibility: 10 mile(s):0
Sky conditions: overcast
Temperature: 57.9 F (14.4 C)
Dew Point: 52.0 F (11.1 C)
Relative Humidity: 80%
Pressure (altimeter): 30.03 in. Hg (1016 hPa)
Pressure tendency: 0.02 inches (0.6 hPa) lower than three hours ago
ob: PAJN 121453Z 00000KT 10SM FEW032 OVC038 14/11 A3003 RMK AO2 SLP168 T01440111 58006
cycle: 15

Station Type Date Time Source
PAJN TAF 2022/08/12 12:34 UTC NOAA

TAF PAJN 121131Z 1212/1312 VRB05KT P6SM OVC035

Example: see airport list